createdAt,value
2022-10-07T00:02:16.307Z,12.50
2022-10-07T00:04:46.303Z,12.50
2022-10-07T00:07:14.769Z,12.50
2022-10-07T00:09:41.614Z,12.50
2022-10-07T00:12:08.950Z,12.50
2022-10-07T00:14:35.769Z,12.50
2022-10-07T00:17:02.911Z,12.50
2022-10-07T00:19:29.842Z,12.50
2022-10-07T00:21:56.709Z,12.50
2022-10-07T00:24:23.656Z,12.50
2022-10-07T00:26:50.550Z,12.50
2022-10-07T00:29:17.485Z,12.50
2022-10-07T00:31:44.321Z,12.50
2022-10-07T00:34:11.613Z,12.50
2022-10-07T00:36:39.042Z,12.50
2022-10-07T00:39:13.585Z,12.50
2022-10-07T00:41:50.476Z,12.50
2022-10-07T00:44:32.544Z,12.40
2022-10-07T00:47:00.034Z,12.40
2022-10-07T00:49:28.361Z,12.40
2022-10-07T00:51:55.220Z,12.40
2022-10-07T00:54:22.073Z,12.40
2022-10-07T00:56:49.957Z,12.30
2022-10-07T00:59:16.814Z,12.40
2022-10-07T01:01:43.814Z,12.30
2022-10-07T01:04:11.384Z,12.30
2022-10-07T01:06:39.391Z,12.30
2022-10-07T01:09:07.130Z,12.30
2022-10-07T01:11:42.712Z,12.30
2022-10-07T01:14:16.700Z,12.30
2022-10-07T01:16:50.260Z,12.30
2022-10-07T01:19:54.928Z,12.30
2022-10-07T01:22:27.886Z,12.30
2022-10-07T01:25:25.298Z,12.20
2022-10-07T01:27:58.969Z,12.20
2022-10-07T01:30:25.813Z,12.20
2022-10-07T01:32:59.358Z,12.20
2022-10-07T01:35:27.908Z,12.20
2022-10-07T01:37:57.103Z,12.20
2022-10-07T01:40:30.938Z,12.20
2022-10-07T01:42:57.837Z,12.20
2022-10-07T01:45:25.236Z,12.20
2022-10-07T01:47:52.095Z,12.20
2022-10-07T01:50:20.760Z,12.20
2022-10-07T01:53:15.624Z,12.20
2022-10-07T01:56:02.283Z,12.20
2022-10-07T01:58:44.595Z,12.20
2022-10-07T02:01:53.110Z,12.20
2022-10-07T02:04:38.162Z,12.10
2022-10-07T02:07:10.520Z,12.20
2022-10-07T02:09:42.532Z,12.20
2022-10-07T02:12:24.124Z,12.20
2022-10-07T02:15:06.370Z,12.20
2022-10-07T02:17:35.310Z,12.20
2022-10-07T02:20:02.133Z,12.20
2022-10-07T02:22:28.977Z,12.20
2022-10-07T02:24:59.032Z,12.20
2022-10-07T02:27:33.057Z,12.20
2022-10-07T02:30:03.424Z,12.20
2022-10-07T02:32:30.359Z,12.20
2022-10-07T02:35:00.091Z,12.20
2022-10-07T02:37:27.955Z,12.20
2022-10-07T02:39:54.912Z,12.20
2022-10-07T02:42:26.575Z,12.20
2022-10-07T02:45:24.540Z,12.20
2022-10-07T02:47:58.714Z,12.20
2022-10-07T02:50:26.854Z,12.20
2022-10-07T02:52:55.763Z,12.20
2022-10-07T02:55:24.369Z,12.20
2022-10-07T02:57:53.592Z,12.20
2022-10-07T03:00:20.611Z,12.20
2022-10-07T03:02:49.901Z,12.20
2022-10-07T03:05:20.034Z,12.20
2022-10-07T03:07:47.819Z,12.20
2022-10-07T03:10:14.776Z,12.20
2022-10-07T03:12:42.270Z,12.20
2022-10-07T03:15:11.320Z,12.20
2022-10-07T03:17:39.455Z,12.20
2022-10-07T03:20:07.865Z,12.10
2022-10-07T03:22:34.732Z,12.20
2022-10-07T03:25:01.691Z,12.20
2022-10-07T03:27:29.187Z,12.20
2022-10-07T03:29:58.596Z,12.20
2022-10-07T03:32:27.296Z,12.20
2022-10-07T03:34:54.916Z,12.20
2022-10-07T03:37:22.730Z,12.20
2022-10-07T03:39:49.756Z,12.10
2022-10-07T03:42:16.705Z,12.10
2022-10-07T03:44:43.528Z,12.10
2022-10-07T03:47:11.227Z,12.10
2022-10-07T03:49:39.186Z,12.10
2022-10-07T03:52:06.659Z,12.10
2022-10-07T03:54:34.357Z,12.10
2022-10-07T03:57:01.277Z,12.10
2022-10-07T03:59:28.183Z,12.10
2022-10-07T04:01:55.140Z,12.10
2022-10-07T04:04:22.014Z,12.10
2022-10-07T04:06:48.827Z,12.20
2022-10-07T04:09:15.713Z,12.20
2022-10-07T04:11:43.342Z,12.30
2022-10-07T04:14:10.163Z,12.30
2022-10-07T04:16:38.792Z,12.40
2022-10-07T04:19:06.068Z,12.40
2022-10-07T04:21:33.513Z,12.40
2022-10-07T04:24:00.577Z,12.50
2022-10-07T04:26:27.418Z,12.60
2022-10-07T04:28:54.233Z,12.60
2022-10-07T04:31:21.094Z,12.70
2022-10-07T04:33:47.929Z,12.70
2022-10-07T04:36:14.758Z,12.70
2022-10-07T04:38:42.799Z,12.80
2022-10-07T04:41:09.695Z,12.80
2022-10-07T04:43:36.572Z,12.90
2022-10-07T04:46:09.089Z,12.90
2022-10-07T04:48:37.765Z,13.00
2022-10-07T04:51:08.557Z,12.90
2022-10-07T04:53:36.429Z,13.00
2022-10-07T04:56:03.391Z,13.00
2022-10-07T04:58:30.682Z,13.10
2022-10-07T05:00:58.275Z,13.10
2022-10-07T05:03:26.542Z,13.10
2022-10-07T05:05:56.372Z,13.20
2022-10-07T05:08:26.870Z,13.20
2022-10-07T05:10:57.498Z,13.20
2022-10-07T05:13:26.207Z,13.30
2022-10-07T05:15:54.583Z,13.30
2022-10-07T05:18:21.729Z,13.30
2022-10-07T05:20:48.910Z,13.30
2022-10-07T05:23:16.349Z,13.30
2022-10-07T05:25:44.075Z,13.30
2022-10-07T05:28:11.907Z,13.20
2022-10-07T05:30:38.938Z,13.20
2022-10-07T05:33:06.013Z,13.20
2022-10-07T05:35:34.116Z,13.20
2022-10-07T05:38:01.475Z,13.10
2022-10-07T05:40:28.512Z,13.10
2022-10-07T05:42:55.370Z,13.10
2022-10-07T05:45:22.264Z,13.10
2022-10-07T05:47:49.119Z,13.10
2022-10-07T05:50:16.453Z,13.10
2022-10-07T05:52:45.414Z,13.20
2022-10-07T05:55:12.443Z,13.20
2022-10-07T05:57:40.021Z,13.20
2022-10-07T06:00:07.853Z,13.20
2022-10-07T06:02:34.795Z,13.20
2022-10-07T06:05:01.708Z,13.30
2022-10-07T06:07:29.720Z,13.30
2022-10-07T06:10:15.141Z,13.40
2022-10-07T06:13:00.662Z,13.40
2022-10-07T06:15:27.514Z,13.50
2022-10-07T06:17:54.383Z,13.50
2022-10-07T06:20:21.306Z,13.50
2022-10-07T06:22:48.200Z,13.60
2022-10-07T06:25:15.225Z,13.60
2022-10-07T06:27:42.160Z,13.60
2022-10-07T06:30:09.488Z,13.70
2022-10-07T06:32:36.367Z,13.70
2022-10-07T06:35:03.286Z,13.70
2022-10-07T06:37:31.767Z,13.70
2022-10-07T06:39:59.720Z,13.80
2022-10-07T06:42:26.771Z,13.80
2022-10-07T06:44:54.022Z,13.80
2022-10-07T06:47:21.541Z,13.80
2022-10-07T06:49:48.488Z,13.90
2022-10-07T06:52:15.365Z,13.90
2022-10-07T06:54:42.344Z,14.00
2022-10-07T06:57:33.219Z,14.00
2022-10-07T06:59:56.315Z,14.00
2022-10-07T07:02:25.696Z,13.90
2022-10-07T07:04:57.238Z,13.90
2022-10-07T07:07:24.672Z,13.90
2022-10-07T07:09:51.983Z,13.80
2022-10-07T07:12:18.793Z,13.80
2022-10-07T07:14:45.971Z,13.80
2022-10-07T07:17:12.869Z,13.80
2022-10-07T07:19:39.677Z,13.90
2022-10-07T07:22:07.619Z,13.90
2022-10-07T07:24:34.628Z,13.90
2022-10-07T07:27:01.511Z,14.00
2022-10-07T07:29:28.448Z,14.00
2022-10-07T07:31:55.320Z,14.00
2022-10-07T07:34:22.235Z,14.10
2022-10-07T07:36:51.366Z,14.00
2022-10-07T07:39:18.769Z,14.10
2022-10-07T07:41:50.801Z,14.10
2022-10-07T07:44:18.255Z,14.10
2022-10-07T07:46:48.522Z,14.20
2022-10-07T07:49:16.090Z,14.20
2022-10-07T07:51:43.148Z,14.20
2022-10-07T07:54:10.862Z,14.30
2022-10-07T07:56:37.826Z,14.30
2022-10-07T07:59:04.801Z,14.30
2022-10-07T08:01:32.169Z,14.30
2022-10-07T08:03:59.398Z,14.40
2022-10-07T08:06:28.078Z,14.40
2022-10-07T08:08:57.449Z,14.50
2022-10-07T08:11:24.587Z,14.60
2022-10-07T08:13:51.679Z,14.60
2022-10-07T08:16:20.116Z,14.70
2022-10-07T08:18:50.885Z,14.70
2022-10-07T08:21:20.205Z,14.70
2022-10-07T08:23:49.869Z,14.80
2022-10-07T08:26:16.753Z,14.80
2022-10-07T08:28:43.621Z,14.80
2022-10-07T08:31:14.431Z,14.80
2022-10-07T08:33:43.040Z,14.90
2022-10-07T08:36:13.766Z,14.90
2022-10-07T08:38:41.107Z,15.00
2022-10-07T08:41:19.946Z,15.00
2022-10-07T08:43:50.439Z,15.20
2022-10-07T08:46:20.524Z,15.30
2022-10-07T08:49:21.603Z,15.40
2022-10-07T08:51:57.916Z,15.40
2022-10-07T08:54:27.045Z,15.50
2022-10-07T08:56:54.368Z,15.60
2022-10-07T08:59:28.547Z,15.60
2022-10-07T09:02:49.045Z,15.70
2022-10-07T09:05:28.290Z,15.70
2022-10-07T09:07:58.141Z,15.80
2022-10-07T09:10:34.898Z,15.80
2022-10-07T09:13:14.102Z,15.90
2022-10-07T09:15:48.674Z,15.90
2022-10-07T09:19:00.820Z,15.90
2022-10-07T09:21:37.246Z,16.00
2022-10-07T09:24:13.168Z,16.00
2022-10-07T09:26:40.844Z,16.00
2022-10-07T09:29:09.867Z,16.00
2022-10-07T09:31:37.082Z,16.00
2022-10-07T09:34:03.967Z,16.00
2022-10-07T09:36:31.060Z,16.00
2022-10-07T09:38:59.194Z,16.00
2022-10-07T09:41:32.687Z,16.00
2022-10-07T09:44:04.445Z,16.00
2022-10-07T09:46:36.234Z,16.10
2022-10-07T09:49:06.107Z,16.10
2022-10-07T09:51:33.167Z,16.20
2022-10-07T09:54:08.773Z,16.20
2022-10-07T09:56:40.599Z,16.20
2022-10-07T09:59:24.661Z,16.20
2022-10-07T10:02:17.988Z,16.20
2022-10-07T10:04:50.322Z,16.30
2022-10-07T10:07:19.934Z,16.20
2022-10-07T10:10:10.686Z,16.20
2022-10-07T10:12:45.086Z,16.20
2022-10-07T10:15:41.265Z,16.30
2022-10-07T10:18:36.160Z,16.40
2022-10-07T10:21:20.426Z,16.40
2022-10-07T10:23:48.715Z,16.50
2022-10-07T10:26:42.093Z,16.50
2022-10-07T10:29:20.927Z,16.60
2022-10-07T10:31:50.547Z,16.60
2022-10-07T10:34:32.619Z,16.70
2022-10-07T10:37:04.481Z,16.80
2022-10-07T10:40:24.911Z,16.90
2022-10-07T10:43:06.428Z,17.00
2022-10-07T10:45:38.523Z,17.20
2022-10-07T10:48:34.329Z,17.50
2022-10-07T10:51:10.530Z,17.70
2022-10-07T10:53:44.305Z,17.90
2022-10-07T10:56:41.698Z,18.00
2022-10-07T10:59:12.534Z,18.20
2022-10-07T11:01:40.789Z,18.20
2022-10-07T11:04:10.815Z,18.20
2022-10-07T11:06:38.682Z,18.20
2022-10-07T11:09:06.000Z,18.20
2022-10-07T11:11:32.906Z,18.30
2022-10-07T11:14:21.086Z,18.40
2022-10-07T11:16:55.996Z,18.50
2022-10-07T11:19:26.987Z,18.50
2022-10-07T11:21:54.147Z,18.60
2022-10-07T11:24:28.371Z,18.60
2022-10-07T11:27:17.569Z,18.80
2022-10-07T11:29:58.905Z,18.90
2022-10-07T11:32:38.827Z,19.20
2022-10-07T11:35:23.490Z,19.10
2022-10-07T11:38:00.785Z,19.00
2022-10-07T11:40:30.191Z,19.00
2022-10-07T11:42:57.791Z,18.90
2022-10-07T11:45:27.788Z,18.80
2022-10-07T11:47:59.809Z,18.80
2022-10-07T11:50:55.265Z,18.80
2022-10-07T11:53:27.716Z,18.90
2022-10-07T11:56:04.731Z,19.00
2022-10-07T11:58:39.095Z,19.20
2022-10-07T12:01:31.042Z,19.30
2022-10-07T12:04:17.571Z,19.30
2022-10-07T12:07:21.973Z,19.10
2022-10-07T12:10:09.836Z,19.20
2022-10-07T12:12:43.248Z,19.20
2022-10-07T12:15:27.187Z,19.30
2022-10-07T12:17:55.361Z,19.30
2022-10-07T12:20:35.406Z,19.20
2022-10-07T12:23:26.312Z,19.30
2022-10-07T12:25:58.842Z,19.30
2022-10-07T12:28:41.940Z,19.30
2022-10-07T12:31:14.932Z,19.40
2022-10-07T12:33:45.071Z,19.40
2022-10-07T12:36:30.013Z,19.30
2022-10-07T12:38:57.033Z,19.30
2022-10-07T12:41:27.628Z,19.40
2022-10-07T12:44:06.410Z,19.50
2022-10-07T12:46:51.074Z,19.40
2022-10-07T12:49:37.847Z,19.30
2022-10-07T12:52:13.570Z,19.30
2022-10-07T12:55:02.671Z,19.20
2022-10-07T12:57:33.305Z,19.20
2022-10-07T13:00:20.334Z,19.20
2022-10-07T13:03:05.704Z,19.20
2022-10-07T13:05:51.308Z,19.20
2022-10-07T13:08:47.311Z,19.10
2022-10-07T13:12:12.977Z,19.10
2022-10-07T13:14:51.066Z,19.30
2022-10-07T13:17:35.755Z,19.40
2022-10-07T13:20:27.329Z,19.60
2022-10-07T13:22:55.395Z,19.50
2022-10-07T13:25:22.384Z,19.40
2022-10-07T13:27:56.963Z,19.30
2022-10-07T13:30:41.078Z,19.20
2022-10-07T13:33:17.125Z,19.30
2022-10-07T13:35:44.071Z,19.40
2022-10-07T13:38:27.589Z,19.40
2022-10-07T13:41:05.157Z,19.40
2022-10-07T13:43:32.534Z,19.50
2022-10-07T13:46:00.137Z,19.50
2022-10-07T13:48:28.975Z,19.50
2022-10-07T13:50:57.201Z,19.40
2022-10-07T13:53:27.801Z,19.30
2022-10-07T13:56:26.687Z,19.20
2022-10-07T13:58:55.323Z,19.30
2022-10-07T14:01:29.955Z,19.30
2022-10-07T14:04:10.175Z,19.30
2022-10-07T14:06:56.184Z,19.30
2022-10-07T14:09:26.318Z,19.30
2022-10-07T14:11:56.222Z,19.30
2022-10-07T14:14:33.655Z,19.20
2022-10-07T14:17:00.655Z,19.10
2022-10-07T14:19:31.938Z,19.10
2022-10-07T14:22:02.801Z,19.00
2022-10-07T14:24:29.850Z,18.80
2022-10-07T14:26:56.948Z,18.80
2022-10-07T14:29:35.807Z,18.80
2022-10-07T14:32:27.619Z,18.80
2022-10-07T14:35:13.796Z,18.80
2022-10-07T14:37:42.791Z,18.80
2022-10-07T14:40:23.446Z,18.60
2022-10-07T14:42:53.742Z,18.60
2022-10-07T14:45:23.624Z,18.50
2022-10-07T14:47:50.775Z,18.40
2022-10-07T14:50:19.728Z,18.40
2022-10-07T14:52:51.851Z,18.50
2022-10-07T14:55:24.214Z,18.60
2022-10-07T14:57:51.077Z,18.70
2022-10-07T15:00:26.282Z,18.80
2022-10-07T15:02:54.658Z,18.80
2022-10-07T15:05:22.984Z,18.80
2022-10-07T15:07:50.341Z,18.80
2022-10-07T15:10:19.433Z,18.70
2022-10-07T15:12:46.621Z,18.70
2022-10-07T15:15:14.037Z,18.70
2022-10-07T15:17:41.334Z,18.70
2022-10-07T15:20:09.653Z,18.70
2022-10-07T15:22:36.539Z,18.60
2022-10-07T15:25:03.932Z,18.50
2022-10-07T15:27:30.968Z,18.40
2022-10-07T15:29:58.564Z,18.40
2022-10-07T15:32:25.478Z,18.40
2022-10-07T15:34:54.266Z,18.30
2022-10-07T15:37:21.957Z,18.10
2022-10-07T15:39:48.868Z,18.00
2022-10-07T15:42:15.730Z,18.00
2022-10-07T15:44:44.319Z,17.90
2022-10-07T15:47:13.713Z,17.80
2022-10-07T15:49:40.664Z,17.80
2022-10-07T15:52:09.105Z,17.80
2022-10-07T15:54:36.161Z,17.80
2022-10-07T15:57:03.138Z,17.80
2022-10-07T15:59:30.040Z,17.70
2022-10-07T16:01:57.413Z,17.80
2022-10-07T16:04:24.317Z,17.80
2022-10-07T16:06:54.087Z,17.70
2022-10-07T16:09:21.949Z,17.70
2022-10-07T16:11:48.958Z,17.60
2022-10-07T16:14:15.931Z,17.50
2022-10-07T16:16:43.094Z,17.50
2022-10-07T16:19:11.524Z,17.40
2022-10-07T16:21:39.866Z,17.30
2022-10-07T16:24:10.060Z,17.30
2022-10-07T16:26:37.605Z,17.30
2022-10-07T16:29:25.404Z,17.20
2022-10-07T16:31:58.160Z,17.20
2022-10-07T16:34:26.029Z,17.10
2022-10-07T16:36:53.085Z,17.00
2022-10-07T16:39:21.338Z,17.00
2022-10-07T16:41:48.676Z,16.90
2022-10-07T16:44:15.669Z,16.90
2022-10-07T16:46:42.747Z,16.90
2022-10-07T16:49:13.823Z,16.90
2022-10-07T16:51:40.889Z,16.90
2022-10-07T16:54:13.140Z,16.90
2022-10-07T16:56:41.404Z,16.90
2022-10-07T16:59:09.845Z,16.90
2022-10-07T17:01:38.962Z,16.90
2022-10-07T17:04:06.253Z,16.80
2022-10-07T17:06:33.277Z,16.80
2022-10-07T17:09:05.810Z,16.80
2022-10-07T17:11:33.722Z,16.80
2022-10-07T17:14:18.506Z,16.80
2022-10-07T17:16:53.519Z,16.80
2022-10-07T17:19:22.283Z,16.80
2022-10-07T17:21:49.449Z,16.80
2022-10-07T17:24:16.904Z,16.80
2022-10-07T17:26:44.223Z,16.70
2022-10-07T17:29:12.220Z,16.70
2022-10-07T17:31:40.826Z,16.70
2022-10-07T17:34:07.758Z,16.70
2022-10-07T17:36:34.772Z,16.60
2022-10-07T17:39:01.965Z,16.60
2022-10-07T17:41:30.485Z,16.60
2022-10-07T17:43:58.922Z,16.50
2022-10-07T17:46:27.358Z,16.50
2022-10-07T17:48:55.711Z,16.50
2022-10-07T17:51:24.437Z,16.50
2022-10-07T17:53:52.494Z,16.50
2022-10-07T17:56:19.551Z,16.50
2022-10-07T17:58:47.752Z,16.50
2022-10-07T18:01:28.164Z,16.50
2022-10-07T18:03:57.593Z,16.40
2022-10-07T18:06:25.560Z,16.50
2022-10-07T18:08:52.436Z,16.40
2022-10-07T18:11:19.259Z,16.40
2022-10-07T18:14:04.694Z,16.40
2022-10-07T18:16:32.626Z,16.40
2022-10-07T18:18:59.718Z,16.40
2022-10-07T18:21:27.791Z,16.20
2022-10-07T18:23:56.865Z,16.00
2022-10-07T18:26:23.700Z,15.80
2022-10-07T18:28:50.864Z,15.60
2022-10-07T18:31:18.350Z,15.50
2022-10-07T18:33:46.365Z,15.30
2022-10-07T18:36:18.312Z,15.20
2022-10-07T18:38:45.317Z,15.10
2022-10-07T18:41:14.276Z,15.10
2022-10-07T18:43:41.625Z,15.00
2022-10-07T18:46:12.759Z,15.00
2022-10-07T18:48:41.915Z,14.90
2022-10-07T18:51:08.882Z,14.80
2022-10-07T18:53:36.891Z,14.80
2022-10-07T18:56:08.061Z,14.80
2022-10-07T18:58:35.751Z,14.70
2022-10-07T19:01:13.892Z,14.70
2022-10-07T19:03:41.013Z,14.70
2022-10-07T19:06:13.259Z,14.60
2022-10-07T19:08:40.740Z,14.60
2022-10-07T19:11:08.987Z,14.60
2022-10-07T19:13:48.277Z,14.60
2022-10-07T19:16:16.505Z,14.60
2022-10-07T19:18:43.938Z,14.50
2022-10-07T19:21:13.910Z,14.50
2022-10-07T19:23:40.778Z,14.50
2022-10-07T19:26:08.183Z,14.40
2022-10-07T19:28:36.638Z,14.40
2022-10-07T19:31:15.905Z,14.40
2022-10-07T19:33:43.810Z,14.30
2022-10-07T19:36:11.748Z,14.30
2022-10-07T19:38:42.260Z,14.30
2022-10-07T19:41:10.729Z,14.30
2022-10-07T19:43:38.722Z,14.30
2022-10-07T19:46:06.406Z,14.30
2022-10-07T19:48:33.365Z,14.30
2022-10-07T19:51:01.295Z,14.20
2022-10-07T19:53:33.942Z,14.20
2022-10-07T19:56:06.073Z,14.20
2022-10-07T19:58:33.055Z,14.10
2022-10-07T20:01:07.032Z,14.00
2022-10-07T20:03:34.073Z,14.00
2022-10-07T20:06:05.298Z,14.00
2022-10-07T20:08:34.327Z,13.90
2022-10-07T20:11:02.104Z,13.90
2022-10-07T20:13:30.767Z,13.80
2022-10-07T20:16:08.382Z,13.80
2022-10-07T20:18:35.789Z,13.80
2022-10-07T20:21:08.702Z,13.80
2022-10-07T20:23:36.319Z,13.70
2022-10-07T20:26:18.730Z,13.70
2022-10-07T20:28:46.491Z,13.60
2022-10-07T20:31:13.570Z,13.60
2022-10-07T20:33:42.551Z,13.60
2022-10-07T20:36:10.117Z,13.60
2022-10-07T20:38:56.029Z,13.60
2022-10-07T20:41:41.866Z,13.50
2022-10-07T20:44:09.261Z,13.40
2022-10-07T20:46:37.976Z,13.50
2022-10-07T20:49:12.160Z,13.40
2022-10-07T20:51:39.856Z,13.40
2022-10-07T20:54:06.809Z,13.30
2022-10-07T20:56:33.708Z,13.30
2022-10-07T20:59:00.620Z,13.30
2022-10-07T21:01:28.433Z,13.30
2022-10-07T21:03:55.365Z,13.20
2022-10-07T21:06:22.330Z,13.30
2022-10-07T21:08:54.034Z,13.30
2022-10-07T21:11:20.911Z,13.40
2022-10-07T21:13:47.747Z,13.40
2022-10-07T21:16:14.676Z,13.30
2022-10-07T21:18:41.616Z,13.40
2022-10-07T21:21:11.711Z,13.40
2022-10-07T21:23:38.610Z,13.40
2022-10-07T21:26:07.165Z,13.40
2022-10-07T21:28:37.570Z,13.40
2022-10-07T21:31:08.464Z,13.40
2022-10-07T21:33:36.160Z,13.30
2022-10-07T21:36:04.472Z,13.30
2022-10-07T21:38:32.098Z,13.20
2022-10-07T21:41:01.764Z,13.20
2022-10-07T21:43:28.571Z,13.20
2022-10-07T21:46:00.195Z,13.10
2022-10-07T21:48:30.161Z,13.10
2022-10-07T21:50:57.398Z,13.00
2022-10-07T21:53:24.830Z,13.00
2022-10-07T21:55:52.974Z,13.00
2022-10-07T21:58:26.567Z,12.90
2022-10-07T22:00:53.516Z,12.90
2022-10-07T22:03:20.397Z,12.80
2022-10-07T22:05:47.306Z,12.80
2022-10-07T22:08:36.282Z,12.80
2022-10-07T22:11:13.892Z,12.80
2022-10-07T22:13:42.474Z,12.80
2022-10-07T22:16:17.197Z,12.80
2022-10-07T22:18:46.133Z,12.70
2022-10-07T22:21:23.234Z,12.70
2022-10-07T22:23:54.257Z,12.60
2022-10-07T22:26:23.336Z,12.60
2022-10-07T22:28:50.621Z,12.50
2022-10-07T22:31:17.760Z,12.50
2022-10-07T22:33:45.205Z,12.50
2022-10-07T22:36:13.019Z,12.50
2022-10-07T22:38:43.503Z,12.40
2022-10-07T22:41:12.147Z,12.40
2022-10-07T22:43:39.301Z,12.40
2022-10-07T22:46:06.598Z,12.30
2022-10-07T22:48:33.891Z,12.30
2022-10-07T22:51:08.542Z,12.30
2022-10-07T22:53:35.972Z,12.30
2022-10-07T22:56:04.310Z,12.20
2022-10-07T22:58:31.134Z,12.20
2022-10-07T23:01:03.605Z,12.20
2022-10-07T23:03:30.581Z,12.20
2022-10-07T23:06:00.103Z,12.10
2022-10-07T23:08:26.974Z,12.10
2022-10-07T23:10:59.989Z,12.10
2022-10-07T23:13:27.097Z,12.10
2022-10-07T23:16:05.570Z,12.00
2022-10-07T23:18:32.583Z,12.00
2022-10-07T23:21:07.398Z,12.00
2022-10-07T23:23:37.841Z,11.90
2022-10-07T23:26:07.887Z,11.90
2022-10-07T23:28:35.429Z,11.90
2022-10-07T23:31:21.218Z,11.90
2022-10-07T23:33:49.381Z,11.80
2022-10-07T23:36:16.551Z,11.80
2022-10-07T23:38:44.723Z,11.80
2022-10-07T23:41:30.294Z,11.80
2022-10-07T23:43:58.491Z,11.70
2022-10-07T23:46:26.410Z,11.70
2022-10-07T23:48:53.491Z,11.70
2022-10-07T23:51:21.729Z,11.60
2022-10-07T23:53:48.721Z,11.60
2022-10-07T23:56:15.624Z,11.60
2022-10-07T23:58:42.526Z,11.50
